createdAt,value
2018-11-11T00:01:20.825Z,9.08
2018-11-11T00:03:49.402Z,9.13
2018-11-11T00:06:17.878Z,9.18
2018-11-11T00:08:46.391Z,9.29
2018-11-11T00:11:14.885Z,9.39
2018-11-11T00:13:43.453Z,9.50
2018-11-11T00:16:11.926Z,9.54
2018-11-11T00:18:40.502Z,9.59
2018-11-11T00:21:08.964Z,9.59
2018-11-11T00:23:37.473Z,9.53
2018-11-11T00:26:06.069Z,9.51
2018-11-11T00:28:34.601Z,9.50
2018-11-11T00:31:03.106Z,9.47
2018-11-11T00:33:31.580Z,9.41
2018-11-11T00:36:00.105Z,9.44
2018-11-11T00:38:29.924Z,9.39
2018-11-11T00:40:58.441Z,9.39
2018-11-11T00:43:26.973Z,9.37
2018-11-11T00:45:55.566Z,9.23
2018-11-11T00:48:24.049Z,9.10
2018-11-11T00:50:53.507Z,8.94
2018-11-11T00:53:21.999Z,8.98
2018-11-11T00:55:51.030Z,8.98
2018-11-11T00:58:19.528Z,8.97
2018-11-11T01:00:48.054Z,8.95
2018-11-11T01:03:16.558Z,9.02
2018-11-11T01:05:45.146Z,8.95
2018-11-11T01:08:13.624Z,8.93
2018-11-11T01:10:42.133Z,8.88
2018-11-11T01:13:10.621Z,8.82
2018-11-11T01:15:39.145Z,8.91
2018-11-11T01:18:07.636Z,9.05
2018-11-11T01:20:36.185Z,9.14
2018-11-11T01:23:05.053Z,9.23
2018-11-11T01:25:33.570Z,9.18
2018-11-11T01:28:02.042Z,9.25
2018-11-11T01:30:30.569Z,9.24
2018-11-11T01:32:59.074Z,9.32
2018-11-11T01:35:27.576Z,9.31
2018-11-11T01:37:56.122Z,9.27
2018-11-11T01:40:24.638Z,9.24
2018-11-11T01:42:53.145Z,9.23
2018-11-11T01:45:21.695Z,9.27
2018-11-11T01:47:50.357Z,9.40
2018-11-11T01:50:18.893Z,9.49
2018-11-11T01:52:48.379Z,9.50
2018-11-11T01:55:17.047Z,9.51
2018-11-11T01:57:45.901Z,9.52
2018-11-11T02:00:17.057Z,9.55
2018-11-11T02:02:46.236Z,9.52
2018-11-11T02:05:15.148Z,9.43
2018-11-11T02:07:44.619Z,9.47
2018-11-11T02:10:13.565Z,9.44
2018-11-11T02:12:43.257Z,9.31
2018-11-11T02:15:15.118Z,9.22
2018-11-11T02:17:44.114Z,9.27
2018-11-11T02:20:14.658Z,9.27
2018-11-11T02:22:44.297Z,9.43
2018-11-11T02:25:12.942Z,9.47
2018-11-11T02:27:41.477Z,9.46
2018-11-11T02:30:13.277Z,9.39
2018-11-11T02:32:43.921Z,9.33
2018-11-11T02:35:12.902Z,9.26
2018-11-11T02:37:41.611Z,9.29
2018-11-11T02:40:16.861Z,9.23
2018-11-11T02:42:46.431Z,9.30
2018-11-11T02:45:16.317Z,9.29
2018-11-11T02:47:45.066Z,9.13
2018-11-11T02:50:14.845Z,9.17
2018-11-11T02:52:43.998Z,9.13
2018-11-11T02:55:13.143Z,9.14
2018-11-11T02:57:42.070Z,9.22
2018-11-11T03:00:15.562Z,9.30
2018-11-11T03:02:44.743Z,9.32
2018-11-11T03:12:15.971Z,9.19
2018-11-11T03:14:44.388Z,9.23
2018-11-11T03:17:12.953Z,9.32
2018-11-11T03:19:41.567Z,9.20
2018-11-11T03:22:10.158Z,9.16
2018-11-11T03:24:38.638Z,9.12
2018-11-11T03:27:07.445Z,9.07
2018-11-11T03:29:36.203Z,9.03
2018-11-11T03:32:05.297Z,9.07
2018-11-11T03:34:33.948Z,9.06
2018-11-11T03:37:02.481Z,9.04
2018-11-11T03:39:31.027Z,9.11
2018-11-11T03:41:59.884Z,8.99
2018-11-11T03:44:28.387Z,8.86
2018-11-11T03:46:56.994Z,8.86
2018-11-11T03:49:25.497Z,8.93
2018-11-11T03:51:54.016Z,9.12
2018-11-11T03:54:22.463Z,9.23
2018-11-11T03:56:50.986Z,9.31
2018-11-11T03:59:19.450Z,9.37
2018-11-11T04:01:48.038Z,9.45
2018-11-11T04:04:16.509Z,9.41
2018-11-11T04:06:45.093Z,9.42
2018-11-11T04:09:13.619Z,9.40
2018-11-11T04:11:42.439Z,9.42
2018-11-11T04:14:11.557Z,9.42
2018-11-11T04:16:40.336Z,9.46
2018-11-11T04:19:09.481Z,9.35
2018-11-11T04:21:37.974Z,9.22
2018-11-11T04:24:06.825Z,9.07
2018-11-11T04:26:35.357Z,9.07
2018-11-11T04:29:03.963Z,9.05
2018-11-11T04:31:32.466Z,9.11
2018-11-11T04:34:01.294Z,9.02
2018-11-11T04:36:29.813Z,8.98
2018-11-11T04:38:58.428Z,8.84
2018-11-11T04:41:27.016Z,8.86
2018-11-11T04:43:56.356Z,8.81
2018-11-11T04:46:24.964Z,8.82
2018-11-11T04:48:53.405Z,8.84
2018-11-11T04:51:22.073Z,8.89
2018-11-11T04:53:50.618Z,8.98
2018-11-11T04:56:19.157Z,9.07
2018-11-11T04:58:47.702Z,9.02
2018-11-11T05:01:16.262Z,8.88
2018-11-11T05:03:44.788Z,8.67
2018-11-11T05:06:13.409Z,8.73
2018-11-11T05:08:41.890Z,8.76
2018-11-11T05:11:10.403Z,8.77
2018-11-11T05:13:39.071Z,8.69
2018-11-11T05:16:07.534Z,8.57
2018-11-11T05:18:36.067Z,8.48
2018-11-11T05:21:04.642Z,8.47
2018-11-11T05:23:33.193Z,8.57
2018-11-11T05:26:01.697Z,8.59
2018-11-11T05:28:30.327Z,8.57
2018-11-11T05:30:58.912Z,8.55
2018-11-11T05:33:27.399Z,8.57
2018-11-11T05:35:55.891Z,8.54
2018-11-11T05:38:24.414Z,8.46
2018-11-11T05:40:52.893Z,8.40
2018-11-11T05:43:21.428Z,8.37
2018-11-11T05:45:49.946Z,8.36
2018-11-11T05:48:18.470Z,8.38
2018-11-11T05:50:46.961Z,8.37
2018-11-11T05:53:15.489Z,8.31
2018-11-11T05:55:44.032Z,8.30
2018-11-11T05:58:12.554Z,8.27
2018-11-11T06:00:41.092Z,8.30
2018-11-11T06:03:09.630Z,8.33
2018-11-11T06:05:38.132Z,8.34
2018-11-11T06:08:06.646Z,8.32
2018-11-11T06:10:35.149Z,8.35
2018-11-11T06:13:03.622Z,8.38
2018-11-11T06:15:32.126Z,8.35
2018-11-11T06:18:00.578Z,8.36
2018-11-11T06:20:29.088Z,8.36
2018-11-11T06:22:57.565Z,8.38
2018-11-11T06:25:26.109Z,8.45
2018-11-11T06:27:54.598Z,8.46
2018-11-11T06:30:23.093Z,8.48
2018-11-11T06:32:51.550Z,8.54
2018-11-11T06:35:20.038Z,8.60
2018-11-11T06:37:48.501Z,8.65
2018-11-11T06:40:17.000Z,8.69
2018-11-11T06:42:45.485Z,8.72
2018-11-11T06:45:15.107Z,8.73
2018-11-11T06:47:44.336Z,8.67
2018-11-11T06:50:13.905Z,8.65
2018-11-11T06:52:42.863Z,8.72
2018-11-11T06:55:11.631Z,8.70
2018-11-11T06:57:40.315Z,8.66
2018-11-11T07:00:11.006Z,8.68
2018-11-11T07:02:40.588Z,8.74
2018-11-11T07:05:10.020Z,8.80
2018-11-11T07:07:38.498Z,8.80
2018-11-11T07:10:07.060Z,8.85
2018-11-11T07:12:35.559Z,8.75
2018-11-11T07:15:04.181Z,8.77
2018-11-11T07:17:32.688Z,8.79
2018-11-11T07:20:01.178Z,8.86
2018-11-11T07:22:29.681Z,8.87
2018-11-11T07:24:58.197Z,8.85
2018-11-11T07:27:26.694Z,8.87
2018-11-11T07:29:55.205Z,8.84
2018-11-11T07:32:25.401Z,8.86
2018-11-11T07:34:53.921Z,8.87
2018-11-11T07:37:22.436Z,8.87
2018-11-11T07:39:50.950Z,8.83
2018-11-11T07:42:19.473Z,8.81
2018-11-11T07:44:48.022Z,8.84
2018-11-11T07:47:16.473Z,8.81
2018-11-11T07:49:44.954Z,8.79
2018-11-11T07:52:13.516Z,8.77
2018-11-11T07:54:42.000Z,8.83
2018-11-11T07:57:10.480Z,8.91
2018-11-11T07:59:39.167Z,8.99
2018-11-11T08:02:08.138Z,9.14
2018-11-11T08:04:36.697Z,9.24
2018-11-11T08:07:05.704Z,9.32
2018-11-11T08:09:34.249Z,9.41
2018-11-11T08:12:05.825Z,9.46
2018-11-11T08:14:34.324Z,9.35
2018-11-11T08:17:02.880Z,9.27
2018-11-11T08:19:31.505Z,9.22
2018-11-11T08:22:00.117Z,9.22
2018-11-11T08:24:28.623Z,9.20
2018-11-11T08:26:57.189Z,9.23
2018-11-11T08:29:25.681Z,9.23
2018-11-11T08:31:54.193Z,9.21
2018-11-11T08:34:22.714Z,9.24
2018-11-11T08:36:51.530Z,9.32
2018-11-11T08:39:20.231Z,9.29
2018-11-11T08:41:48.765Z,9.21
2018-11-11T08:44:17.250Z,9.24
2018-11-11T08:46:46.446Z,9.32
2018-11-11T08:49:15.348Z,9.29
2018-11-11T08:51:43.886Z,9.30
2018-11-11T08:54:12.394Z,9.40
2018-11-11T08:56:40.973Z,9.54
2018-11-11T08:59:09.466Z,9.52
2018-11-11T09:01:37.983Z,9.52
2018-11-11T09:04:06.932Z,9.59
2018-11-11T09:06:36.415Z,9.57
2018-11-11T09:09:06.358Z,9.57
2018-11-11T09:11:34.904Z,9.59
2018-11-11T09:14:03.426Z,9.72
2018-11-11T09:16:31.975Z,9.74
2018-11-11T09:19:00.503Z,9.68
2018-11-11T09:21:29.163Z,9.64
2018-11-11T09:23:57.582Z,9.71
2018-11-11T09:26:26.118Z,9.78
2018-11-11T09:28:54.617Z,9.66
2018-11-11T09:31:23.136Z,9.60
2018-11-11T09:33:51.616Z,9.68
2018-11-11T09:36:20.152Z,9.77
2018-11-11T09:38:48.680Z,9.77
2018-11-11T09:41:17.146Z,9.82
2018-11-11T09:43:45.640Z,9.77
2018-11-11T09:46:14.140Z,9.83
2018-11-11T09:48:42.618Z,10.02
2018-11-11T09:51:11.126Z,10.14
2018-11-11T09:53:39.771Z,10.26
2018-11-11T09:56:08.133Z,10.38
2018-11-11T09:58:36.691Z,10.51
2018-11-11T10:01:05.231Z,10.40
2018-11-11T10:03:54.453Z,10.54
2018-11-11T10:08:30.832Z,10.34
2018-11-11T10:11:04.581Z,10.22
2018-11-11T10:13:46.182Z,10.42
2018-11-11T10:17:23.581Z,10.45
2018-11-11T10:20:27.992Z,10.36
2018-11-11T10:23:06.766Z,10.36
2018-11-11T10:25:43.654Z,10.37
2018-11-11T10:28:18.973Z,10.27
2018-11-11T10:30:57.589Z,10.32
2018-11-11T10:35:39.011Z,10.33
2018-11-11T10:38:13.400Z,10.36
2018-11-11T10:40:45.061Z,10.63
2018-11-11T10:43:21.249Z,10.98
2018-11-11T10:45:56.005Z,10.82
2018-11-11T10:48:27.490Z,10.69
2018-11-11T10:50:58.426Z,10.54
2018-11-11T10:53:26.929Z,10.52
2018-11-11T10:55:55.424Z,10.57
2018-11-11T10:58:23.919Z,10.95
2018-11-11T11:00:57.755Z,10.90
2018-11-11T11:03:31.730Z,10.66
2018-11-11T11:06:00.821Z,10.51
2018-11-11T11:08:29.218Z,10.51
2018-11-11T11:10:57.782Z,10.56
2018-11-11T11:13:26.685Z,10.48
2018-11-11T11:15:55.214Z,10.65
2018-11-11T11:18:23.690Z,10.63
2018-11-11T11:20:52.198Z,10.61
2018-11-11T11:23:20.678Z,10.73
2018-11-11T11:25:49.235Z,10.69
2018-11-11T11:28:17.672Z,10.46
2018-11-11T11:30:46.172Z,10.35
2018-11-11T11:33:14.648Z,10.50
2018-11-11T11:35:43.213Z,10.81
2018-11-11T11:38:11.694Z,11.04
2018-11-11T11:40:40.181Z,11.16
2018-11-11T11:43:08.659Z,11.04
2018-11-11T11:45:37.158Z,10.93
2018-11-11T11:48:05.669Z,10.65
2018-11-11T11:50:34.349Z,10.53
2018-11-11T11:53:02.734Z,10.59
2018-11-11T11:55:31.172Z,10.73
2018-11-11T11:58:13.494Z,11.01
2018-11-11T12:00:41.913Z,11.47
2018-11-11T12:03:10.374Z,11.62
2018-11-11T12:05:38.873Z,11.60
2018-11-11T12:08:07.346Z,11.75
2018-11-11T12:10:35.846Z,11.70
2018-11-11T12:13:04.341Z,11.37
2018-11-11T12:15:32.930Z,11.24
2018-11-11T12:18:01.740Z,11.19
2018-11-11T12:20:30.243Z,11.27
2018-11-11T12:22:59.635Z,11.49
2018-11-11T12:25:28.536Z,11.42
2018-11-11T12:27:57.494Z,11.06
2018-11-11T12:30:26.226Z,11.10
2018-11-11T12:32:54.694Z,11.50
2018-11-11T12:35:23.266Z,11.42
2018-11-11T12:37:51.793Z,11.79
2018-11-11T12:40:20.438Z,11.94
2018-11-11T12:42:48.890Z,11.53
2018-11-11T12:45:17.493Z,11.76
2018-11-11T12:47:46.395Z,11.98
2018-11-11T12:50:15.034Z,12.16
2018-11-11T12:52:43.547Z,12.32
2018-11-11T12:55:12.118Z,12.36
2018-11-11T12:57:40.615Z,12.07
2018-11-11T13:00:11.199Z,11.89
2018-11-11T13:02:39.809Z,11.91
2018-11-11T13:05:09.242Z,12.15
2018-11-11T13:07:37.764Z,12.34
2018-11-11T13:10:08.329Z,12.34
2018-11-11T13:12:36.829Z,12.15
2018-11-11T13:15:06.349Z,12.50
2018-11-11T13:17:34.930Z,12.92
2018-11-11T13:20:03.642Z,13.52
2018-11-11T13:22:32.173Z,13.65
2018-11-11T13:25:00.614Z,13.35
2018-11-11T13:27:29.104Z,13.22
2018-11-11T13:29:57.583Z,13.75
2018-11-11T13:32:26.066Z,13.74
2018-11-11T13:34:54.521Z,12.83
2018-11-11T13:37:23.024Z,12.41
2018-11-11T13:39:51.476Z,12.56
2018-11-11T13:42:19.953Z,12.90
2018-11-11T13:44:48.412Z,13.27
2018-11-11T13:47:16.901Z,13.31
2018-11-11T13:49:45.361Z,13.06
2018-11-11T13:52:13.885Z,12.99
2018-11-11T13:54:42.357Z,12.43
2018-11-11T13:57:10.878Z,12.30
2018-11-11T13:59:39.361Z,12.32
2018-11-11T14:02:08.014Z,12.56
2018-11-11T14:04:36.501Z,12.58
2018-11-11T14:07:05.129Z,12.61
2018-11-11T14:09:33.652Z,12.72
2018-11-11T14:12:02.259Z,12.91
2018-11-11T14:14:30.761Z,12.73
2018-11-11T14:16:59.288Z,12.72
2018-11-11T14:19:27.791Z,12.89
2018-11-11T14:21:56.321Z,12.78
2018-11-11T14:24:24.817Z,12.73
2018-11-11T14:26:53.397Z,12.68
2018-11-11T14:29:21.836Z,12.61
2018-11-11T14:31:50.368Z,12.68
2018-11-11T14:34:18.896Z,12.44
2018-11-11T14:36:47.984Z,12.23
2018-11-11T14:39:16.614Z,12.27
2018-11-11T14:41:45.126Z,12.24
2018-11-11T14:44:13.823Z,12.16
2018-11-11T14:46:43.258Z,11.79
2018-11-11T14:49:11.782Z,11.52
2018-11-11T14:51:40.488Z,11.34
2018-11-11T14:54:08.989Z,11.23
2018-11-11T14:56:37.489Z,11.16
2018-11-11T14:59:06.088Z,11.10
2018-11-11T15:01:34.634Z,10.95
2018-11-11T15:04:03.253Z,10.82
2018-11-11T15:06:31.701Z,10.86
2018-11-11T15:09:00.239Z,10.87
2018-11-11T15:11:28.777Z,10.93
2018-11-11T15:13:57.293Z,10.92
2018-11-11T15:16:25.852Z,10.91
2018-11-11T15:18:54.448Z,10.90
2018-11-11T15:21:22.880Z,10.85
2018-11-11T15:23:51.386Z,10.78
2018-11-11T15:26:19.884Z,10.70
2018-11-11T15:28:48.398Z,10.64
2018-11-11T15:31:16.971Z,10.59
2018-11-11T15:33:45.417Z,10.49
2018-11-11T15:36:13.933Z,10.47
2018-11-11T15:38:42.456Z,10.47
2018-11-11T15:41:11.010Z,10.39
2018-11-11T15:43:39.494Z,10.32
2018-11-11T15:46:08.008Z,10.23
2018-11-11T15:48:36.585Z,10.18
2018-11-11T15:51:05.133Z,10.15
2018-11-11T15:53:33.786Z,10.22
2018-11-11T15:56:02.538Z,10.19
2018-11-11T15:58:31.386Z,10.15
2018-11-11T16:00:59.905Z,10.15
2018-11-11T16:03:28.426Z,10.08
2018-11-11T16:05:56.953Z,9.98
2018-11-11T16:08:25.453Z,9.95
2018-11-11T16:10:53.918Z,9.92
2018-11-11T16:13:22.493Z,9.92
2018-11-11T16:15:51.007Z,9.81
2018-11-11T16:18:19.547Z,9.78
2018-11-11T16:20:48.043Z,9.72
2018-11-11T16:23:16.655Z,9.60
2018-11-11T16:25:45.251Z,9.65
2018-11-11T16:28:13.878Z,9.59
2018-11-11T16:30:42.406Z,9.54
2018-11-11T16:33:11.114Z,9.49
2018-11-11T16:35:39.706Z,9.46
2018-11-11T16:38:08.354Z,9.45
2018-11-11T16:40:37.735Z,9.37
2018-11-11T16:43:06.258Z,9.29
2018-11-11T16:45:35.706Z,9.27
2018-11-11T16:48:04.669Z,9.18
2018-11-11T16:50:34.349Z,9.13
2018-11-11T16:53:05.214Z,9.15
2018-11-11T16:55:34.630Z,9.02
2018-11-11T16:58:03.131Z,9.05
2018-11-11T17:00:33.021Z,9.05
2018-11-11T17:03:02.461Z,8.99
2018-11-11T17:05:32.408Z,8.96
2018-11-11T17:08:00.898Z,9.04
2018-11-11T17:10:32.364Z,8.98
2018-11-11T17:13:02.780Z,8.97
2018-11-11T17:15:32.190Z,8.96
2018-11-11T17:18:00.768Z,8.85
2018-11-11T17:20:29.663Z,8.81
2018-11-11T17:22:59.943Z,8.75
2018-11-11T17:25:28.808Z,8.76
2018-11-11T17:27:57.424Z,8.73
2018-11-11T17:30:27.278Z,8.64
2018-11-11T17:32:56.334Z,8.60
2018-11-11T17:35:24.837Z,8.52
2018-11-11T17:37:53.432Z,8.52
2018-11-11T17:40:23.457Z,8.48
2018-11-11T17:42:52.861Z,8.44
2018-11-11T17:45:21.486Z,8.43
2018-11-11T17:47:50.740Z,8.36
2018-11-11T17:50:23.887Z,8.35
2018-11-11T17:52:52.414Z,8.30
2018-11-11T17:55:22.956Z,8.30
2018-11-11T17:57:51.459Z,8.29
2018-11-11T18:00:21.448Z,8.24
2018-11-11T18:02:50.471Z,8.27
2018-11-11T18:05:20.361Z,8.23
2018-11-11T18:07:48.889Z,8.20
2018-11-11T18:10:18.799Z,8.18
2018-11-11T18:12:47.286Z,8.22
2018-11-11T18:15:18.124Z,8.19
2018-11-11T18:17:46.640Z,8.13
2018-11-11T18:20:17.549Z,8.11
2018-11-11T18:22:46.458Z,8.07
2018-11-11T18:25:15.359Z,8.06
2018-11-11T18:27:43.969Z,8.06
2018-11-11T18:30:18.036Z,7.99
2018-11-11T18:32:46.743Z,7.97
2018-11-11T18:35:16.278Z,7.93
2018-11-11T18:37:45.046Z,7.93
2018-11-11T18:40:14.855Z,7.94
2018-11-11T18:42:43.635Z,7.92
2018-11-11T18:45:22.996Z,7.84
2018-11-11T18:47:52.162Z,7.85
2018-11-11T18:50:24.262Z,7.82
2018-11-11T18:52:52.777Z,7.75
2018-11-11T18:55:21.324Z,7.70
2018-11-11T18:57:49.916Z,7.72
2018-11-11T19:00:20.978Z,7.78
2018-11-11T19:02:50.321Z,7.76
2018-11-11T19:05:19.757Z,7.74
2018-11-11T19:07:48.624Z,7.68
2018-11-11T19:10:18.703Z,7.64
2018-11-11T19:12:48.030Z,7.57
2018-11-11T19:15:17.607Z,7.64
2018-11-11T19:17:46.835Z,7.60
2018-11-11T19:20:17.825Z,7.63
2018-11-11T19:22:46.353Z,7.60
2018-11-11T19:25:16.416Z,7.56
2018-11-11T19:27:46.021Z,7.54
2018-11-11T19:30:15.333Z,7.48
2018-11-11T19:32:44.508Z,7.46
2018-11-11T19:35:14.165Z,7.44
2018-11-11T19:37:43.474Z,7.50
2018-11-11T19:40:14.495Z,7.44
2018-11-11T19:42:43.555Z,7.49
2018-11-11T19:45:13.597Z,7.44
2018-11-11T19:47:42.672Z,7.44
2018-11-11T19:50:12.999Z,7.38
2018-11-11T19:52:43.093Z,7.36
2018-11-11T19:55:13.358Z,7.34
2018-11-11T19:57:42.263Z,7.26
2018-11-11T20:00:17.460Z,7.23
2018-11-11T20:02:47.162Z,7.22
2018-11-11T20:05:16.414Z,7.19
2018-11-11T20:07:46.086Z,7.24
2018-11-11T20:10:15.679Z,7.22
2018-11-11T20:12:44.260Z,7.15
2018-11-11T20:15:14.212Z,7.03
2018-11-11T20:17:43.182Z,7.00
2018-11-11T20:20:14.197Z,6.99
2018-11-11T20:22:42.753Z,6.96
2018-11-11T20:25:12.630Z,6.96
2018-11-11T20:27:41.788Z,6.91
2018-11-11T20:30:14.162Z,6.88
2018-11-11T20:32:42.871Z,6.98
2018-11-11T20:35:13.004Z,6.91
2018-11-11T20:37:41.574Z,6.94
2018-11-11T20:40:15.353Z,6.93
2018-11-11T20:42:44.524Z,6.91
2018-11-11T20:45:14.082Z,6.89
2018-11-11T20:47:43.222Z,6.90
2018-11-11T20:50:14.414Z,6.84
2018-11-11T20:52:43.849Z,6.80
2018-11-11T20:55:13.006Z,6.75
2018-11-11T20:57:41.821Z,6.67
2018-11-11T21:00:19.976Z,6.68
2018-11-11T21:02:48.575Z,6.69
2018-11-11T21:05:21.387Z,6.48
2018-11-11T21:07:50.029Z,6.56
2018-11-11T21:10:20.837Z,6.44
2018-11-11T21:12:49.360Z,6.40
2018-11-11T21:15:19.076Z,6.37
2018-11-11T21:17:47.938Z,6.31
2018-11-11T21:20:17.836Z,6.40
2018-11-11T21:22:46.372Z,6.40
2018-11-11T21:25:15.195Z,6.26
2018-11-11T21:27:45.131Z,6.14
2018-11-11T21:30:15.388Z,6.09
2018-11-11T21:32:43.989Z,6.13
2018-11-11T21:35:12.770Z,6.19
2018-11-11T21:37:41.694Z,6.21
2018-11-11T21:40:12.709Z,6.23
2018-11-11T21:42:41.694Z,6.25
2018-11-11T21:45:11.949Z,6.25
2018-11-11T21:47:40.818Z,6.21
2018-11-11T21:50:11.370Z,6.23
2018-11-11T21:52:40.018Z,6.17
2018-11-11T21:55:09.050Z,6.13
2018-11-11T21:57:37.693Z,6.12
2018-11-11T22:00:07.954Z,6.07
2018-11-11T22:02:36.448Z,5.99
2018-11-11T22:05:06.241Z,6.15
2018-11-11T22:07:35.054Z,6.09
2018-11-11T22:10:03.830Z,6.08
2018-11-11T22:12:32.225Z,6.10
2018-11-11T22:15:00.798Z,6.10
2018-11-11T22:17:29.700Z,6.11
2018-11-11T22:19:58.229Z,5.94
2018-11-11T22:22:26.837Z,5.87
2018-11-11T22:24:55.313Z,5.87
2018-11-11T22:27:23.806Z,5.88
2018-11-11T22:29:52.690Z,5.86
2018-11-11T22:32:21.337Z,5.90
2018-11-11T22:34:49.884Z,5.92
2018-11-11T22:37:18.402Z,5.91
2018-11-11T22:39:46.936Z,5.89
2018-11-11T22:42:15.461Z,5.95
2018-11-11T22:44:44.013Z,5.94
2018-11-11T22:47:12.560Z,5.95
2018-11-11T22:49:41.107Z,5.97
2018-11-11T22:52:09.628Z,6.00
2018-11-11T22:54:38.223Z,6.01
2018-11-11T22:57:07.082Z,5.92
2018-11-11T22:59:35.627Z,5.88
2018-11-11T23:02:04.165Z,5.86
2018-11-11T23:04:32.727Z,5.87
2018-11-11T23:07:01.292Z,5.86
2018-11-11T23:09:29.822Z,5.95
2018-11-11T23:11:58.367Z,5.89
2018-11-11T23:14:26.904Z,5.87
2018-11-11T23:16:55.375Z,5.83
2018-11-11T23:19:23.937Z,5.75
2018-11-11T23:21:52.501Z,5.73
2018-11-11T23:24:21.021Z,5.75
2018-11-11T23:26:49.613Z,5.78
2018-11-11T23:29:18.132Z,5.79
2018-11-11T23:31:46.685Z,5.74
2018-11-11T23:34:15.174Z,5.81
2018-11-11T23:36:43.766Z,5.81
2018-11-11T23:39:12.273Z,5.74
2018-11-11T23:41:40.834Z,5.67
2018-11-11T23:44:09.839Z,5.71
2018-11-11T23:46:39.033Z,5.69
2018-11-11T23:49:09.059Z,5.66
2018-11-11T23:51:37.597Z,5.65
2018-11-11T23:54:06.377Z,5.64
2018-11-11T23:56:35.148Z,5.65
2018-11-11T23:59:03.737Z,5.62
